sensor_id;sensor_type;location;lat;lon;timestamp;P1;durP1;ratioP1;P2;durP2;ratioP2
32393;SDS011;18853;45.426;9.206;2023-03-14T00:00:35;28.88;;;21.35;;
32393;SDS011;18853;45.426;9.206;2023-03-14T00:03:02;28.38;;;20.98;;
32393;SDS011;18853;45.426;9.206;2023-03-14T00:05:27;30.50;;;21.38;;
32393;SDS011;18853;45.426;9.206;2023-03-14T00:07:53;30.27;;;22.08;;
32393;SDS011;18853;45.426;9.206;2023-03-14T00:10:19;29.35;;;22.50;;
32393;SDS011;18853;45.426;9.206;2023-03-14T00:12:45;32.13;;;21.90;;
32393;SDS011;18853;45.426;9.206;2023-03-14T00:15:10;26.58;;;22.08;;
32393;SDS011;18853;45.426;9.206;2023-03-14T00:17:37;28.80;;;20.75;;
32393;SDS011;18853;45.426;9.206;2023-03-14T00:20:06;25.52;;;20.27;;
32393;SDS011;18853;45.426;9.206;2023-03-14T00:22:36;27.73;;;21.38;;
32393;SDS011;18853;45.426;9.206;2023-03-14T00:25:03;27.70;;;21.00;;
32393;SDS011;18853;45.426;9.206;2023-03-14T00:27:30;26.30;;;20.60;;
32393;SDS011;18853;45.426;9.206;2023-03-14T00:29:56;24.40;;;19.92;;
32393;SDS011;18853;45.426;9.206;2023-03-14T00:32:22;28.75;;;19.85;;
32393;SDS011;18853;45.426;9.206;2023-03-14T00:34:48;26.00;;;20.90;;
32393;SDS011;18853;45.426;9.206;2023-03-14T00:37:14;23.60;;;19.35;;
32393;SDS011;18853;45.426;9.206;2023-03-14T00:39:40;27.35;;;19.63;;
32393;SDS011;18853;45.426;9.206;2023-03-14T00:42:06;25.88;;;19.33;;
32393;SDS011;18853;45.426;9.206;2023-03-14T00:44:31;28.88;;;18.88;;
32393;SDS011;18853;45.426;9.206;2023-03-14T00:46:58;25.38;;;19.23;;
32393;SDS011;18853;45.426;9.206;2023-03-14T00:49:23;24.30;;;18.55;;
32393;SDS011;18853;45.426;9.206;2023-03-14T00:51:49;25.67;;;19.88;;
32393;SDS011;18853;45.426;9.206;2023-03-14T00:54:16;25.27;;;18.30;;
32393;SDS011;18853;45.426;9.206;2023-03-14T00:56:42;25.50;;;18.30;;
32393;SDS011;18853;45.426;9.206;2023-03-14T00:59:08;24.63;;;19.20;;
32393;SDS011;18853;45.426;9.206;2023-03-14T01:01:33;21.85;;;17.38;;
32393;SDS011;18853;45.426;9.206;2023-03-14T01:03:59;25.00;;;17.88;;
32393;SDS011;18853;45.426;9.206;2023-03-14T01:06:27;21.85;;;17.75;;
32393;SDS011;18853;45.426;9.206;2023-03-14T01:08:54;26.05;;;17.52;;
32393;SDS011;18853;45.426;9.206;2023-03-14T01:11:22;23.52;;;17.92;;
32393;SDS011;18853;45.426;9.206;2023-03-14T01:13:56;25.20;;;17.27;;
32393;SDS011;18853;45.426;9.206;2023-03-14T01:16:22;21.98;;;16.77;;
32393;SDS011;18853;45.426;9.206;2023-03-14T01:18:49;23.45;;;17.10;;
32393;SDS011;18853;45.426;9.206;2023-03-14T01:21:25;24.85;;;17.85;;
32393;SDS011;18853;45.426;9.206;2023-03-14T01:23:53;23.02;;;17.45;;
32393;SDS011;18853;45.426;9.206;2023-03-14T01:26:21;21.27;;;17.73;;
32393;SDS011;18853;45.426;9.206;2023-03-14T01:28:49;23.25;;;17.20;;
32393;SDS011;18853;45.426;9.206;2023-03-14T01:31:16;25.48;;;17.83;;
32393;SDS011;18853;45.426;9.206;2023-03-14T01:33:42;23.38;;;17.10;;
32393;SDS011;18853;45.426;9.206;2023-03-14T01:36:08;22.98;;;17.90;;
32393;SDS011;18853;45.426;9.206;2023-03-14T01:38:35;22.73;;;17.48;;
32393;SDS011;18853;45.426;9.206;2023-03-14T01:41:02;24.42;;;17.30;;
32393;SDS011;18853;45.426;9.206;2023-03-14T01:43:28;23.05;;;17.95;;
32393;SDS011;18853;45.426;9.206;2023-03-14T01:48:34;23.13;;;17.65;;
32393;SDS011;18853;45.426;9.206;2023-03-14T01:51:02;19.40;;;16.30;;
32393;SDS011;18853;45.426;9.206;2023-03-14T01:53:34;25.55;;;17.92;;
32393;SDS011;18853;45.426;9.206;2023-03-14T01:56:01;23.95;;;17.17;;
32393;SDS011;18853;45.426;9.206;2023-03-14T01:58:28;21.58;;;16.92;;
32393;SDS011;18853;45.426;9.206;2023-03-14T02:00:57;22.25;;;17.20;;
32393;SDS011;18853;45.426;9.206;2023-03-14T02:03:24;19.88;;;15.77;;
32393;SDS011;18853;45.426;9.206;2023-03-14T02:05:51;21.00;;;15.50;;
32393;SDS011;18853;45.426;9.206;2023-03-14T02:08:21;22.95;;;17.30;;
32393;SDS011;18853;45.426;9.206;2023-03-14T02:10:49;22.00;;;16.25;;
32393;SDS011;18853;45.426;9.206;2023-03-14T02:13:18;22.20;;;16.67;;
32393;SDS011;18853;45.426;9.206;2023-03-14T02:15:46;21.73;;;16.05;;
32393;SDS011;18853;45.426;9.206;2023-03-14T02:18:13;22.92;;;16.67;;
32393;SDS011;18853;45.426;9.206;2023-03-14T02:20:55;21.75;;;15.55;;
32393;SDS011;18853;45.426;9.206;2023-03-14T02:27:00;21.25;;;15.93;;
32393;SDS011;18853;45.426;9.206;2023-03-14T02:29:36;19.92;;;16.13;;
32393;SDS011;18853;45.426;9.206;2023-03-14T02:32:07;23.02;;;17.45;;
32393;SDS011;18853;45.426;9.206;2023-03-14T02:34:33;23.80;;;16.17;;
32393;SDS011;18853;45.426;9.206;2023-03-14T02:37:01;23.23;;;16.33;;
32393;SDS011;18853;45.426;9.206;2023-03-14T02:39:30;22.52;;;16.55;;
32393;SDS011;18853;45.426;9.206;2023-03-14T02:42:06;20.65;;;16.15;;
32393;SDS011;18853;45.426;9.206;2023-03-14T02:44:32;20.05;;;15.32;;
32393;SDS011;18853;45.426;9.206;2023-03-14T02:46:58;22.00;;;16.42;;
32393;SDS011;18853;45.426;9.206;2023-03-14T02:49:23;21.52;;;15.90;;
32393;SDS011;18853;45.426;9.206;2023-03-14T02:51:53;21.42;;;15.93;;
32393;SDS011;18853;45.426;9.206;2023-03-14T02:54:18;21.85;;;15.18;;
32393;SDS011;18853;45.426;9.206;2023-03-14T02:56:45;19.67;;;15.23;;
32393;SDS011;18853;45.426;9.206;2023-03-14T02:59:11;21.95;;;15.73;;
32393;SDS011;18853;45.426;9.206;2023-03-14T03:01:36;20.98;;;16.60;;
32393;SDS011;18853;45.426;9.206;2023-03-14T03:04:02;20.60;;;15.30;;
32393;SDS011;18853;45.426;9.206;2023-03-14T03:06:29;21.75;;;15.95;;
32393;SDS011;18853;45.426;9.206;2023-03-14T03:08:55;21.70;;;15.85;;
32393;SDS011;18853;45.426;9.206;2023-03-14T03:11:21;19.73;;;15.90;;
32393;SDS011;18853;45.426;9.206;2023-03-14T03:13:46;23.20;;;15.52;;
32393;SDS011;18853;45.426;9.206;2023-03-14T03:16:12;22.25;;;16.85;;
32393;SDS011;18853;45.426;9.206;2023-03-14T03:18:39;21.77;;;15.85;;
32393;SDS011;18853;45.426;9.206;2023-03-14T03:21:05;23.80;;;16.00;;
32393;SDS011;18853;45.426;9.206;2023-03-14T03:23:33;22.48;;;16.30;;
32393;SDS011;18853;45.426;9.206;2023-03-14T03:25:59;22.75;;;16.08;;
32393;SDS011;18853;45.426;9.206;2023-03-14T03:28:25;20.73;;;16.05;;
32393;SDS011;18853;45.426;9.206;2023-03-14T03:30:50;21.75;;;16.70;;
32393;SDS011;18853;45.426;9.206;2023-03-14T03:33:16;20.17;;;15.52;;
32393;SDS011;18853;45.426;9.206;2023-03-14T03:35:45;22.42;;;16.48;;
32393;SDS011;18853;45.426;9.206;2023-03-14T03:38:12;21.27;;;15.18;;
32393;SDS011;18853;45.426;9.206;2023-03-14T03:40:38;21.52;;;16.55;;
32393;SDS011;18853;45.426;9.206;2023-03-14T03:43:04;23.65;;;16.10;;
32393;SDS011;18853;45.426;9.206;2023-03-14T03:45:29;24.13;;;16.10;;
32393;SDS011;18853;45.426;9.206;2023-03-14T03:47:55;20.60;;;15.32;;
32393;SDS011;18853;45.426;9.206;2023-03-14T03:50:21;20.95;;;16.45;;
32393;SDS011;18853;45.426;9.206;2023-03-14T03:52:47;22.63;;;16.75;;
32393;SDS011;18853;45.426;9.206;2023-03-14T03:55:12;23.95;;;16.75;;
32393;SDS011;18853;45.426;9.206;2023-03-14T03:57:38;21.52;;;16.27;;
32393;SDS011;18853;45.426;9.206;2023-03-14T04:00:04;26.27;;;16.67;;
32393;SDS011;18853;45.426;9.206;2023-03-14T04:02:30;24.33;;;17.15;;
32393;SDS011;18853;45.426;9.206;2023-03-14T04:04:56;27.80;;;17.00;;
32393;SDS011;18853;45.426;9.206;2023-03-14T04:07:22;25.95;;;17.65;;
32393;SDS011;18853;45.426;9.206;2023-03-14T04:09:47;26.88;;;18.10;;
32393;SDS011;18853;45.426;9.206;2023-03-14T04:12:13;23.08;;;17.98;;
32393;SDS011;18853;45.426;9.206;2023-03-14T04:14:39;26.40;;;17.00;;
32393;SDS011;18853;45.426;9.206;2023-03-14T04:17:06;25.75;;;18.00;;
32393;SDS011;18853;45.426;9.206;2023-03-14T04:19:32;24.88;;;18.52;;
32393;SDS011;18853;45.426;9.206;2023-03-14T04:21:57;24.33;;;18.40;;
32393;SDS011;18853;45.426;9.206;2023-03-14T04:24:23;27.40;;;20.23;;
32393;SDS011;18853;45.426;9.206;2023-03-14T04:26:49;29.02;;;19.65;;
32393;SDS011;18853;45.426;9.206;2023-03-14T04:29:14;25.58;;;19.38;;
32393;SDS011;18853;45.426;9.206;2023-03-14T04:31:40;28.77;;;19.90;;
32393;SDS011;18853;45.426;9.206;2023-03-14T04:34:05;27.10;;;19.52;;
32393;SDS011;18853;45.426;9.206;2023-03-14T04:36:31;27.48;;;19.75;;
32393;SDS011;18853;45.426;9.206;2023-03-14T04:38:57;30.13;;;20.90;;
32393;SDS011;18853;45.426;9.206;2023-03-14T04:41:22;29.67;;;20.98;;
32393;SDS011;18853;45.426;9.206;2023-03-14T04:43:48;29.98;;;21.13;;
32393;SDS011;18853;45.426;9.206;2023-03-14T04:46:13;27.75;;;21.40;;
32393;SDS011;18853;45.426;9.206;2023-03-14T04:48:39;27.58;;;20.65;;
32393;SDS011;18853;45.426;9.206;2023-03-14T04:51:05;28.65;;;20.08;;
32393;SDS011;18853;45.426;9.206;2023-03-14T04:53:31;24.38;;;19.23;;
32393;SDS011;18853;45.426;9.206;2023-03-14T04:55:56;31.98;;;21.33;;
32393;SDS011;18853;45.426;9.206;2023-03-14T04:58:22;27.00;;;20.02;;
32393;SDS011;18853;45.426;9.206;2023-03-14T05:00:48;25.45;;;19.60;;
32393;SDS011;18853;45.426;9.206;2023-03-14T05:03:15;26.05;;;19.20;;
32393;SDS011;18853;45.426;9.206;2023-03-14T05:05:41;26.25;;;19.20;;
32393;SDS011;18853;45.426;9.206;2023-03-14T05:08:06;26.05;;;19.55;;
32393;SDS011;18853;45.426;9.206;2023-03-14T05:10:32;25.73;;;19.15;;
32393;SDS011;18853;45.426;9.206;2023-03-14T05:12:58;23.73;;;19.13;;
32393;SDS011;18853;45.426;9.206;2023-03-14T05:15:24;24.52;;;19.17;;
32393;SDS011;18853;45.426;9.206;2023-03-14T05:17:49;23.27;;;18.20;;
32393;SDS011;18853;45.426;9.206;2023-03-14T05:20:15;23.85;;;17.92;;
32393;SDS011;18853;45.426;9.206;2023-03-14T05:22:41;27.42;;;18.75;;
32393;SDS011;18853;45.426;9.206;2023-03-14T05:25:07;26.08;;;18.63;;
32393;SDS011;18853;45.426;9.206;2023-03-14T05:27:34;25.38;;;19.30;;
32393;SDS011;18853;45.426;9.206;2023-03-14T05:30:00;25.63;;;19.58;;
32393;SDS011;18853;45.426;9.206;2023-03-14T05:32:27;26.05;;;18.17;;
32393;SDS011;18853;45.426;9.206;2023-03-14T05:34:53;26.60;;;18.63;;
32393;SDS011;18853;45.426;9.206;2023-03-14T05:37:23;23.08;;;18.73;;
32393;SDS011;18853;45.426;9.206;2023-03-14T05:39:48;25.02;;;18.17;;
32393;SDS011;18853;45.426;9.206;2023-03-14T05:42:14;22.40;;;18.23;;
32393;SDS011;18853;45.426;9.206;2023-03-14T05:44:40;26.65;;;18.67;;
32393;SDS011;18853;45.426;9.206;2023-03-14T05:47:05;22.33;;;17.98;;
32393;SDS011;18853;45.426;9.206;2023-03-14T05:49:31;28.75;;;19.80;;
32393;SDS011;18853;45.426;9.206;2023-03-14T05:51:57;27.55;;;18.58;;
32393;SDS011;18853;45.426;9.206;2023-03-14T05:54:22;23.05;;;18.20;;
32393;SDS011;18853;45.426;9.206;2023-03-14T05:56:48;26.65;;;19.60;;
32393;SDS011;18853;45.426;9.206;2023-03-14T05:59:13;23.73;;;18.05;;
32393;SDS011;18853;45.426;9.206;2023-03-14T06:01:39;21.67;;;17.90;;
32393;SDS011;18853;45.426;9.206;2023-03-14T06:04:05;24.92;;;18.33;;
32393;SDS011;18853;45.426;9.206;2023-03-14T06:06:31;23.02;;;18.02;;
32393;SDS011;18853;45.426;9.206;2023-03-14T06:08:56;23.70;;;17.70;;
32393;SDS011;18853;45.426;9.206;2023-03-14T06:11:22;24.52;;;19.33;;
32393;SDS011;18853;45.426;9.206;2023-03-14T06:13:48;22.88;;;17.77;;
32393;SDS011;18853;45.426;9.206;2023-03-14T06:16:14;24.67;;;19.15;;
32393;SDS011;18853;45.426;9.206;2023-03-14T06:18:39;23.98;;;18.67;;
32393;SDS011;18853;45.426;9.206;2023-03-14T06:21:05;23.08;;;19.08;;
32393;SDS011;18853;45.426;9.206;2023-03-14T06:23:31;25.40;;;19.63;;
32393;SDS011;18853;45.426;9.206;2023-03-14T06:25:57;23.60;;;18.63;;
32393;SDS011;18853;45.426;9.206;2023-03-14T06:28:22;24.55;;;19.10;;
32393;SDS011;18853;45.426;9.206;2023-03-14T06:30:48;24.92;;;19.27;;
32393;SDS011;18853;45.426;9.206;2023-03-14T06:33:14;23.83;;;18.83;;
32393;SDS011;18853;45.426;9.206;2023-03-14T06:35:39;27.05;;;20.15;;
32393;SDS011;18853;45.426;9.206;2023-03-14T06:38:05;28.00;;;20.52;;
32393;SDS011;18853;45.426;9.206;2023-03-14T06:40:31;24.95;;;19.10;;
32393;SDS011;18853;45.426;9.206;2023-03-14T06:42:56;23.65;;;19.42;;
32393;SDS011;18853;45.426;9.206;2023-03-14T06:45:22;28.13;;;21.63;;
32393;SDS011;18853;45.426;9.206;2023-03-14T06:47:48;29.08;;;21.80;;
32393;SDS011;18853;45.426;9.206;2023-03-14T06:50:14;29.13;;;20.70;;
32393;SDS011;18853;45.426;9.206;2023-03-14T06:52:39;29.33;;;20.58;;
32393;SDS011;18853;45.426;9.206;2023-03-14T06:55:12;30.25;;;21.75;;
32393;SDS011;18853;45.426;9.206;2023-03-14T06:57:39;31.88;;;22.40;;
32393;SDS011;18853;45.426;9.206;2023-03-14T07:00:04;30.75;;;23.23;;
32393;SDS011;18853;45.426;9.206;2023-03-14T07:02:31;31.15;;;23.35;;
32393;SDS011;18853;45.426;9.206;2023-03-14T07:04:56;32.88;;;24.60;;
32393;SDS011;18853;45.426;9.206;2023-03-14T07:07:22;29.77;;;22.58;;
32393;SDS011;18853;45.426;9.206;2023-03-14T07:09:48;29.58;;;22.10;;
32393;SDS011;18853;45.426;9.206;2023-03-14T07:12:13;28.30;;;22.92;;
32393;SDS011;18853;45.426;9.206;2023-03-14T07:14:39;30.63;;;23.20;;
32393;SDS011;18853;45.426;9.206;2023-03-14T07:17:04;29.13;;;23.05;;
32393;SDS011;18853;45.426;9.206;2023-03-14T07:19:30;27.88;;;21.45;;
32393;SDS011;18853;45.426;9.206;2023-03-14T07:21:56;28.92;;;23.02;;
32393;SDS011;18853;45.426;9.206;2023-03-14T07:24:22;28.30;;;23.15;;
32393;SDS011;18853;45.426;9.206;2023-03-14T07:26:48;32.05;;;22.63;;
32393;SDS011;18853;45.426;9.206;2023-03-14T07:29:13;29.65;;;22.65;;
32393;SDS011;18853;45.426;9.206;2023-03-14T07:31:39;29.42;;;22.08;;
32393;SDS011;18853;45.426;9.206;2023-03-14T07:34:05;27.48;;;21.60;;
32393;SDS011;18853;45.426;9.206;2023-03-14T07:36:30;28.65;;;21.65;;
32393;SDS011;18853;45.426;9.206;2023-03-14T07:38:56;27.60;;;21.83;;
32393;SDS011;18853;45.426;9.206;2023-03-14T07:41:21;27.00;;;21.50;;
32393;SDS011;18853;45.426;9.206;2023-03-14T07:43:48;29.65;;;21.50;;
32393;SDS011;18853;45.426;9.206;2023-03-14T07:46:14;31.75;;;21.67;;
32393;SDS011;18853;45.426;9.206;2023-03-14T07:48:40;30.25;;;22.42;;
32393;SDS011;18853;45.426;9.206;2023-03-14T07:51:06;36.03;;;26.05;;
32393;SDS011;18853;45.426;9.206;2023-03-14T07:53:32;41.47;;;30.30;;
32393;SDS011;18853;45.426;9.206;2023-03-14T07:55:57;45.22;;;31.15;;
32393;SDS011;18853;45.426;9.206;2023-03-14T07:58:23;49.47;;;34.25;;
32393;SDS011;18853;45.426;9.206;2023-03-14T08:00:49;52.63;;;35.10;;
32393;SDS011;18853;45.426;9.206;2023-03-14T08:03:16;55.10;;;36.90;;
32393;SDS011;18853;45.426;9.206;2023-03-14T08:05:43;58.17;;;37.90;;
32393;SDS011;18853;45.426;9.206;2023-03-14T08:08:11;50.40;;;35.60;;
32393;SDS011;18853;45.426;9.206;2023-03-14T08:10:37;44.78;;;32.83;;
32393;SDS011;18853;45.426;9.206;2023-03-14T08:13:02;42.15;;;32.70;;
32393;SDS011;18853;45.426;9.206;2023-03-14T08:15:29;41.63;;;33.08;;
32393;SDS011;18853;45.426;9.206;2023-03-14T08:17:55;51.67;;;35.20;;
32393;SDS011;18853;45.426;9.206;2023-03-14T08:20:21;48.80;;;34.90;;
32393;SDS011;18853;45.426;9.206;2023-03-14T08:22:49;47.08;;;34.53;;
32393;SDS011;18853;45.426;9.206;2023-03-14T08:25:15;49.92;;;36.72;;
32393;SDS011;18853;45.426;9.206;2023-03-14T08:27:41;51.90;;;36.47;;
32393;SDS011;18853;45.426;9.206;2023-03-14T08:30:11;42.42;;;29.98;;
32393;SDS011;18853;45.426;9.206;2023-03-14T08:32:38;38.55;;;27.80;;
32393;SDS011;18853;45.426;9.206;2023-03-14T08:35:04;31.23;;;25.23;;
32393;SDS011;18853;45.426;9.206;2023-03-14T08:37:31;32.28;;;25.08;;
32393;SDS011;18853;45.426;9.206;2023-03-14T08:39:57;33.28;;;24.83;;
32393;SDS011;18853;45.426;9.206;2023-03-14T08:42:22;28.08;;;23.65;;
32393;SDS011;18853;45.426;9.206;2023-03-14T08:44:48;29.88;;;22.83;;
32393;SDS011;18853;45.426;9.206;2023-03-14T08:47:15;27.63;;;21.92;;
32393;SDS011;18853;45.426;9.206;2023-03-14T08:49:41;28.25;;;22.77;;
32393;SDS011;18853;45.426;9.206;2023-03-14T08:52:06;26.80;;;22.20;;
32393;SDS011;18853;45.426;9.206;2023-03-14T08:54:32;32.15;;;23.40;;
32393;SDS011;18853;45.426;9.206;2023-03-14T08:56:57;27.92;;;22.33;;
32393;SDS011;18853;45.426;9.206;2023-03-14T08:59:23;31.20;;;23.02;;
32393;SDS011;18853;45.426;9.206;2023-03-14T09:01:49;27.52;;;22.58;;
32393;SDS011;18853;45.426;9.206;2023-03-14T09:04:15;31.85;;;24.05;;
32393;SDS011;18853;45.426;9.206;2023-03-14T09:06:41;28.98;;;22.60;;
32393;SDS011;18853;45.426;9.206;2023-03-14T09:09:07;29.50;;;22.95;;
32393;SDS011;18853;45.426;9.206;2023-03-14T09:11:32;28.70;;;23.02;;
32393;SDS011;18853;45.426;9.206;2023-03-14T09:13:58;31.10;;;24.10;;
32393;SDS011;18853;45.426;9.206;2023-03-14T09:16:24;32.03;;;24.70;;
32393;SDS011;18853;45.426;9.206;2023-03-14T09:18:50;31.42;;;24.85;;
32393;SDS011;18853;45.426;9.206;2023-03-14T09:21:19;28.85;;;23.15;;
32393;SDS011;18853;45.426;9.206;2023-03-14T09:23:45;28.73;;;23.35;;
32393;SDS011;18853;45.426;9.206;2023-03-14T09:26:11;31.15;;;23.58;;
32393;SDS011;18853;45.426;9.206;2023-03-14T09:28:37;29.15;;;22.77;;
32393;SDS011;18853;45.426;9.206;2023-03-14T09:31:06;29.40;;;23.63;;
32393;SDS011;18853;45.426;9.206;2023-03-14T09:33:33;29.52;;;23.45;;
32393;SDS011;18853;45.426;9.206;2023-03-14T09:36:00;28.65;;;22.60;;
32393;SDS011;18853;45.426;9.206;2023-03-14T09:38:26;27.50;;;23.45;;
32393;SDS011;18853;45.426;9.206;2023-03-14T09:40:53;29.13;;;23.00;;
32393;SDS011;18853;45.426;9.206;2023-03-14T09:43:20;24.63;;;21.17;;
32393;SDS011;18853;45.426;9.206;2023-03-14T09:45:49;29.80;;;22.58;;
32393;SDS011;18853;45.426;9.206;2023-03-14T09:48:17;25.98;;;21.70;;
32393;SDS011;18853;45.426;9.206;2023-03-14T09:50:47;29.35;;;21.88;;
32393;SDS011;18853;45.426;9.206;2023-03-14T09:53:25;26.58;;;20.90;;
32393;SDS011;18853;45.426;9.206;2023-03-14T09:55:53;25.98;;;21.38;;
32393;SDS011;18853;45.426;9.206;2023-03-14T09:58:23;24.27;;;20.73;;
32393;SDS011;18853;45.426;9.206;2023-03-14T10:00:50;24.30;;;20.23;;
32393;SDS011;18853;45.426;9.206;2023-03-14T10:03:29;27.90;;;21.98;;
32393;SDS011;18853;45.426;9.206;2023-03-14T10:05:58;29.75;;;24.13;;
32393;SDS011;18853;45.426;9.206;2023-03-14T10:08:24;30.33;;;23.98;;
32393;SDS011;18853;45.426;9.206;2023-03-14T10:10:50;30.20;;;23.83;;
32393;SDS011;18853;45.426;9.206;2023-03-14T10:13:17;33.97;;;26.27;;
32393;SDS011;18853;45.426;9.206;2023-03-14T10:15:51;32.45;;;25.48;;
32393;SDS011;18853;45.426;9.206;2023-03-14T10:18:29;31.70;;;24.85;;
32393;SDS011;18853;45.426;9.206;2023-03-14T10:21:04;32.28;;;25.02;;
32393;SDS011;18853;45.426;9.206;2023-03-14T10:23:48;30.83;;;23.70;;
32393;SDS011;18853;45.426;9.206;2023-03-14T10:26:18;34.20;;;25.27;;
32393;SDS011;18853;45.426;9.206;2023-03-14T10:28:52;32.78;;;25.58;;
32393;SDS011;18853;45.426;9.206;2023-03-14T10:31:26;33.55;;;25.38;;
32393;SDS011;18853;45.426;9.206;2023-03-14T10:34:02;35.10;;;25.98;;
32393;SDS011;18853;45.426;9.206;2023-03-14T10:36:30;32.88;;;22.75;;
32393;SDS011;18853;45.426;9.206;2023-03-14T10:41:50;32.60;;;24.67;;
32393;SDS011;18853;45.426;9.206;2023-03-14T10:44:39;31.98;;;23.30;;
32393;SDS011;18853;45.426;9.206;2023-03-14T10:47:06;28.30;;;20.77;;
32393;SDS011;18853;45.426;9.206;2023-03-14T10:49:39;31.42;;;21.70;;
32393;SDS011;18853;45.426;9.206;2023-03-14T10:54:34;38.38;;;26.25;;
32393;SDS011;18853;45.426;9.206;2023-03-14T10:57:00;35.22;;;26.30;;
32393;SDS011;18853;45.426;9.206;2023-03-14T10:59:29;35.20;;;25.25;;
32393;SDS011;18853;45.426;9.206;2023-03-14T11:02:15;36.97;;;27.15;;
32393;SDS011;18853;45.426;9.206;2023-03-14T11:04:55;32.88;;;24.20;;
32393;SDS011;18853;45.426;9.206;2023-03-14T11:07:45;49.17;;;35.33;;
32393;SDS011;18853;45.426;9.206;2023-03-14T11:18:21;76.15;;;50.75;;
32393;SDS011;18853;45.426;9.206;2023-03-14T11:27:28;63.15;;;43.50;;
32393;SDS011;18853;45.426;9.206;2023-03-14T11:32:11;56.63;;;38.95;;
32393;SDS011;18853;45.426;9.206;2023-03-14T11:34:49;55.47;;;38.58;;
32393;SDS011;18853;45.426;9.206;2023-03-14T11:37:22;61.22;;;40.70;;
32393;SDS011;18853;45.426;9.206;2023-03-14T11:42:37;58.42;;;40.97;;
32393;SDS011;18853;45.426;9.206;2023-03-14T11:45:12;59.67;;;40.67;;
32393;SDS011;18853;45.426;9.206;2023-03-14T11:47:45;62.28;;;38.53;;
32393;SDS011;18853;45.426;9.206;2023-03-14T11:50:24;58.60;;;39.60;;
32393;SDS011;18853;45.426;9.206;2023-03-14T11:52:57;59.33;;;39.38;;
32393;SDS011;18853;45.426;9.206;2023-03-14T11:55:26;59.25;;;40.10;;
32393;SDS011;18853;45.426;9.206;2023-03-14T11:57:58;52.22;;;36.80;;
32393;SDS011;18853;45.426;9.206;2023-03-14T12:00:28;59.75;;;38.97;;
32393;SDS011;18853;45.426;9.206;2023-03-14T12:11:08;37.90;;;26.98;;
32393;SDS011;18853;45.426;9.206;2023-03-14T12:13:58;36.80;;;26.70;;
32393;SDS011;18853;45.426;9.206;2023-03-14T12:16:37;38.30;;;27.38;;
32393;SDS011;18853;45.426;9.206;2023-03-14T12:20:04;37.67;;;27.98;;
32393;SDS011;18853;45.426;9.206;2023-03-14T12:24:31;40.80;;;30.08;;
32393;SDS011;18853;45.426;9.206;2023-03-14T12:27:01;42.30;;;30.42;;
32393;SDS011;18853;45.426;9.206;2023-03-14T12:29:28;42.63;;;29.65;;
32393;SDS011;18853;45.426;9.206;2023-03-14T12:34:26;44.42;;;29.50;;
32393;SDS011;18853;45.426;9.206;2023-03-14T12:50:40;37.28;;;25.42;;
32393;SDS011;18853;45.426;9.206;2023-03-14T13:01:21;33.55;;;24.42;;
32393;SDS011;18853;45.426;9.206;2023-03-14T13:03:51;32.17;;;24.52;;
32393;SDS011;18853;45.426;9.206;2023-03-14T13:11:54;26.88;;;21.27;;
32393;SDS011;18853;45.426;9.206;2023-03-14T13:14:21;28.67;;;21.25;;
32393;SDS011;18853;45.426;9.206;2023-03-14T13:16:47;31.02;;;22.48;;
32393;SDS011;18853;45.426;9.206;2023-03-14T13:19:26;24.45;;;20.25;;
32393;SDS011;18853;45.426;9.206;2023-03-14T13:22:01;26.88;;;21.40;;
32393;SDS011;18853;45.426;9.206;2023-03-14T13:24:32;32.00;;;20.60;;
32393;SDS011;18853;45.426;9.206;2023-03-14T13:26:59;23.90;;;20.10;;
32393;SDS011;18853;45.426;9.206;2023-03-14T13:29:26;26.60;;;20.67;;
32393;SDS011;18853;45.426;9.206;2023-03-14T13:31:57;23.83;;;19.02;;
32393;SDS011;18853;45.426;9.206;2023-03-14T13:34:29;25.50;;;19.45;;
32393;SDS011;18853;45.426;9.206;2023-03-14T13:36:56;24.98;;;19.08;;
32393;SDS011;18853;45.426;9.206;2023-03-14T13:39:23;25.45;;;20.70;;
32393;SDS011;18853;45.426;9.206;2023-03-14T13:42:00;22.08;;;18.90;;
32393;SDS011;18853;45.426;9.206;2023-03-14T13:44:29;22.42;;;18.58;;
32393;SDS011;18853;45.426;9.206;2023-03-14T13:46:58;23.92;;;19.95;;
32393;SDS011;18853;45.426;9.206;2023-03-14T13:49:26;23.95;;;18.10;;
32393;SDS011;18853;45.426;9.206;2023-03-14T13:51:54;19.67;;;17.08;;
32393;SDS011;18853;45.426;9.206;2023-03-14T13:54:20;19.60;;;17.27;;
32393;SDS011;18853;45.426;9.206;2023-03-14T13:56:47;22.48;;;17.50;;
32393;SDS011;18853;45.426;9.206;2023-03-14T14:01:51;21.95;;;18.33;;
32393;SDS011;18853;45.426;9.206;2023-03-14T14:04:18;21.85;;;17.10;;
32393;SDS011;18853;45.426;9.206;2023-03-14T14:06:50;20.75;;;17.63;;
32393;SDS011;18853;45.426;9.206;2023-03-14T14:09:29;22.48;;;18.38;;
32393;SDS011;18853;45.426;9.206;2023-03-14T14:12:05;20.20;;;17.65;;
32393;SDS011;18853;45.426;9.206;2023-03-14T14:14:34;20.65;;;17.17;;
32393;SDS011;18853;45.426;9.206;2023-03-14T14:17:01;21.63;;;17.30;;
32393;SDS011;18853;45.426;9.206;2023-03-14T14:19:32;23.30;;;17.52;;
32393;SDS011;18853;45.426;9.206;2023-03-14T14:22:00;19.73;;;16.65;;
32393;SDS011;18853;45.426;9.206;2023-03-14T14:24:28;22.17;;;16.73;;
32393;SDS011;18853;45.426;9.206;2023-03-14T14:27:39;21.42;;;16.73;;
32393;SDS011;18853;45.426;9.206;2023-03-14T14:32:43;22.63;;;17.88;;
32393;SDS011;18853;45.426;9.206;2023-03-14T14:35:21;23.27;;;18.15;;
32393;SDS011;18853;45.426;9.206;2023-03-14T14:38:10;24.48;;;18.88;;
32393;SDS011;18853;45.426;9.206;2023-03-14T14:40:51;20.42;;;16.52;;
32393;SDS011;18853;45.426;9.206;2023-03-14T14:43:22;21.30;;;17.52;;
32393;SDS011;18853;45.426;9.206;2023-03-14T14:45:50;21.67;;;16.98;;
32393;SDS011;18853;45.426;9.206;2023-03-14T14:48:19;22.40;;;17.40;;
32393;SDS011;18853;45.426;9.206;2023-03-14T14:50:51;22.33;;;16.73;;
32393;SDS011;18853;45.426;9.206;2023-03-14T14:53:34;23.02;;;17.75;;
32393;SDS011;18853;45.426;9.206;2023-03-14T14:58:47;24.13;;;18.13;;
32393;SDS011;18853;45.426;9.206;2023-03-14T15:01:17;22.50;;;17.50;;
32393;SDS011;18853;45.426;9.206;2023-03-14T15:03:49;21.38;;;16.58;;
32393;SDS011;18853;45.426;9.206;2023-03-14T15:06:17;22.08;;;17.77;;
32393;SDS011;18853;45.426;9.206;2023-03-14T15:08:44;25.13;;;18.55;;
32393;SDS011;18853;45.426;9.206;2023-03-14T15:11:19;23.45;;;18.20;;
32393;SDS011;18853;45.426;9.206;2023-03-14T15:13:47;23.77;;;17.52;;
32393;SDS011;18853;45.426;9.206;2023-03-14T15:16:14;24.63;;;18.45;;
32393;SDS011;18853;45.426;9.206;2023-03-14T15:18:42;26.08;;;19.40;;
32393;SDS011;18853;45.426;9.206;2023-03-14T15:21:09;25.98;;;19.15;;
32393;SDS011;18853;45.426;9.206;2023-03-14T15:23:35;29.52;;;20.77;;
32393;SDS011;18853;45.426;9.206;2023-03-14T15:26:00;25.70;;;19.63;;
32393;SDS011;18853;45.426;9.206;2023-03-14T15:28:28;35.08;;;20.30;;
32393;SDS011;18853;45.426;9.206;2023-03-14T15:30:55;29.77;;;19.77;;
32393;SDS011;18853;45.426;9.206;2023-03-14T15:33:22;28.77;;;20.30;;
32393;SDS011;18853;45.426;9.206;2023-03-14T15:35:49;29.00;;;20.67;;
32393;SDS011;18853;45.426;9.206;2023-03-14T15:38:16;29.88;;;20.75;;
32393;SDS011;18853;45.426;9.206;2023-03-14T15:40:48;30.25;;;19.75;;
32393;SDS011;18853;45.426;9.206;2023-03-14T15:43:14;28.67;;;20.50;;
32393;SDS011;18853;45.426;9.206;2023-03-14T15:45:41;32.72;;;21.60;;